createdAt,value
2019-05-22T00:00:51.181Z,96996.32
2019-05-22T00:03:13.939Z,97000.97
2019-05-22T00:05:24.522Z,96999.94
2019-05-22T00:07:32.667Z,97008.07
2019-05-22T00:09:42.360Z,96998.33
2019-05-22T00:11:52.496Z,97003.92
2019-05-22T00:14:00.438Z,97000.73
2019-05-22T00:16:11.602Z,97003.36
2019-05-22T00:18:19.766Z,97008.66
2019-05-22T00:20:29.686Z,97005.97
2019-05-22T00:22:39.317Z,97005.47
2019-05-22T00:24:50.340Z,97001.36
2019-05-22T00:27:00.371Z,97004.87
2019-05-22T00:29:09.193Z,96997.52
2019-05-22T00:31:18.261Z,97001.45
2019-05-22T00:33:26.521Z,97003.77
2019-05-22T00:35:36.981Z,97002.25
2019-05-22T00:37:46.191Z,97006.66
2019-05-22T00:39:54.975Z,97003.63
2019-05-22T00:42:03.890Z,97009.45
2019-05-22T00:44:14.222Z,97011.95
2019-05-22T00:46:24.023Z,97005.66
2019-05-22T00:48:34.559Z,97002.80
2019-05-22T00:50:53.737Z,97000.21
2019-05-22T00:53:04.011Z,97002.12
2019-05-22T00:55:14.269Z,96995.94
2019-05-22T00:57:23.806Z,96998.03
2019-05-22T00:59:36.211Z,96997.05
2019-05-22T01:01:46.377Z,96999.29
2019-05-22T01:03:56.808Z,96996.09
2019-05-22T01:06:06.285Z,96997.77
2019-05-22T01:08:18.065Z,96997.19
2019-05-22T01:10:27.037Z,96996.43
2019-05-22T01:12:42.917Z,96994.09
2019-05-22T01:14:52.894Z,96992.64
2019-05-22T01:17:03.743Z,96996.72
2019-05-22T01:19:11.930Z,96991.30
2019-05-22T01:21:22.261Z,96999.48
2019-05-22T01:23:31.872Z,96995.90
2019-05-22T01:25:40.738Z,96997.41
2019-05-22T01:27:51.423Z,97003.82
2019-05-22T01:30:03.530Z,97000.27
2019-05-22T01:32:18.821Z,97009.25
2019-05-22T01:34:28.675Z,97007.14
2019-05-22T01:36:38.471Z,97002.37
2019-05-22T01:38:47.850Z,97005.13
2019-05-22T01:40:57.648Z,97006.84
2019-05-22T01:43:09.913Z,97010.33
2019-05-22T01:45:18.659Z,97020.23
2019-05-22T01:47:44.082Z,97010.39
2019-05-22T01:49:56.433Z,97006.83
2019-05-22T01:52:06.687Z,97005.09
2019-05-22T01:54:15.109Z,96999.47
2019-05-22T01:56:24.871Z,96997.71
2019-05-22T01:58:34.518Z,96999.83
2019-05-22T02:00:44.190Z,97001.39
2019-05-22T02:02:52.539Z,97000.08
2019-05-22T02:05:02.025Z,97006.72
2019-05-22T02:07:11.533Z,97003.43
2019-05-22T02:09:37.570Z,97009.94
2019-05-22T02:11:46.521Z,97004.75
2019-05-22T02:14:16.073Z,97010.73
2019-05-22T02:16:24.400Z,97009.48
2019-05-22T02:18:34.790Z,97007.38
2019-05-22T02:20:44.973Z,97007.25
2019-05-22T02:22:54.699Z,97005.47
2019-05-22T02:25:05.349Z,97009.48
2019-05-22T02:27:13.901Z,97012.58
2019-05-22T02:29:22.324Z,97011.95
2019-05-22T02:31:30.541Z,97018.37
2019-05-22T02:33:56.584Z,97015.34
2019-05-22T02:36:05.976Z,97013.66
2019-05-22T02:38:14.025Z,97015.95
2019-05-22T02:40:32.355Z,97017.94
2019-05-22T02:42:40.712Z,97013.17
2019-05-22T02:44:48.856Z,97016.23
2019-05-22T02:47:16.745Z,97017.48
2019-05-22T02:49:13.539Z,97015.39
2019-05-22T02:51:22.302Z,97020.16
2019-05-22T02:53:33.735Z,97019.37
2019-05-22T02:55:41.801Z,97021.81
2019-05-22T02:57:51.977Z,97013.50
2019-05-22T03:00:00.942Z,97022.70
2019-05-22T03:02:09.930Z,97020.47
2019-05-22T03:04:19.036Z,97020.33
2019-05-22T03:06:28.023Z,97023.20
2019-05-22T03:09:03.966Z,97027.70
2019-05-22T03:11:13.292Z,97024.88
2019-05-22T03:13:26.756Z,97023.98
2019-05-22T03:15:35.309Z,97030.53
2019-05-22T03:17:47.351Z,97029.35
2019-05-22T03:19:55.564Z,97031.45
2019-05-22T03:22:29.158Z,97028.27
2019-05-22T03:24:38.049Z,97035.53
2019-05-22T03:26:49.023Z,97035.83
2019-05-22T03:28:57.126Z,97037.83
2019-05-22T03:31:06.953Z,97040.46
2019-05-22T03:33:16.586Z,97040.03
2019-05-22T03:35:28.293Z,97038.03
2019-05-22T03:37:37.022Z,97037.90
2019-05-22T03:39:46.875Z,97038.98
2019-05-22T03:41:55.400Z,97043.59
2019-05-22T03:44:05.093Z,97046.66
2019-05-22T03:46:37.124Z,97052.22
2019-05-22T03:48:45.129Z,97052.39
2019-05-22T03:50:58.215Z,97058.94
2019-05-22T03:53:18.320Z,97061.63
2019-05-22T03:55:27.558Z,97065.20
2019-05-22T03:57:38.213Z,97063.42
2019-05-22T03:59:46.678Z,97064.66
2019-05-22T04:01:56.702Z,97056.22
2019-05-22T04:04:07.607Z,97064.61
2019-05-22T04:06:17.573Z,97063.34
2019-05-22T04:08:27.835Z,97061.53
2019-05-22T04:10:41.577Z,97070.20
2019-05-22T04:12:50.609Z,97069.05
2019-05-22T04:15:00.558Z,97071.68
2019-05-22T04:17:13.696Z,97075.33
2019-05-22T04:19:23.177Z,97070.62
2019-05-22T04:21:31.799Z,97079.53
2019-05-22T04:23:40.301Z,97077.45
2019-05-22T04:25:52.732Z,97076.02
2019-05-22T04:27:59.495Z,97083.45
2019-05-22T04:30:12.008Z,97087.98
2019-05-22T04:32:31.813Z,97088.20
2019-05-22T04:34:40.660Z,97087.64
2019-05-22T04:36:50.303Z,97091.48
2019-05-22T04:39:00.834Z,97087.41
2019-05-22T04:41:11.150Z,97091.69
2019-05-22T04:43:21.681Z,97089.41
2019-05-22T04:45:30.895Z,97092.05
2019-05-22T04:47:40.493Z,97091.48
2019-05-22T04:50:06.247Z,97089.77
2019-05-22T04:52:00.371Z,97091.41
2019-05-22T04:54:08.831Z,97096.95
2019-05-22T04:56:17.818Z,97093.72
2019-05-22T04:58:28.151Z,97091.28
2019-05-22T05:00:37.645Z,97091.55
2019-05-22T05:02:46.106Z,97090.89
2019-05-22T05:04:54.327Z,97093.72
2019-05-22T05:07:04.705Z,97093.28
2019-05-22T05:09:14.552Z,97094.56
2019-05-22T05:11:25.418Z,97092.88
2019-05-22T05:13:34.365Z,97091.92
2019-05-22T05:15:42.920Z,97095.02
2019-05-22T05:17:52.069Z,97100.13
2019-05-22T05:20:00.141Z,97101.00
2019-05-22T05:22:08.303Z,97099.31
2019-05-22T05:24:16.945Z,97103.52
2019-05-22T05:26:27.033Z,97097.16
2019-05-22T05:28:35.537Z,97102.08
2019-05-22T05:30:45.665Z,97107.01
2019-05-22T05:32:54.694Z,97101.56
2019-05-22T05:35:05.743Z,97103.41
2019-05-22T05:37:16.073Z,97103.84
2019-05-22T05:39:42.327Z,97113.96
2019-05-22T05:41:50.437Z,97117.34
2019-05-22T05:43:59.768Z,97115.48
2019-05-22T05:46:10.476Z,97111.41
2019-05-22T05:48:22.062Z,97119.37
2019-05-22T05:50:39.674Z,97119.27
2019-05-22T05:52:42.142Z,97118.63
2019-05-22T05:54:51.567Z,97125.06
2019-05-22T05:57:37.627Z,97122.80
2019-05-22T05:59:46.080Z,97126.81
2019-05-22T06:01:55.688Z,97129.41
2019-05-22T06:04:06.385Z,97129.66
2019-05-22T06:06:30.731Z,97135.87
2019-05-22T06:08:39.981Z,97140.95
2019-05-22T06:11:09.195Z,97133.33
2019-05-22T06:13:17.807Z,97134.98
2019-05-22T06:15:47.582Z,97133.14
2019-05-22T06:18:34.880Z,97132.19
2019-05-22T06:21:04.503Z,97130.17
2019-05-22T06:23:34.100Z,97131.16
2019-05-22T06:25:42.101Z,97132.19
2019-05-22T06:27:53.011Z,97139.20
2019-05-22T06:30:11.369Z,97136.30
2019-05-22T06:32:51.418Z,97136.20
2019-05-22T06:34:59.855Z,97135.19
2019-05-22T06:37:21.691Z,97139.50
2019-05-22T06:39:30.513Z,97142.91
2019-05-22T06:41:41.474Z,97145.64
2019-05-22T06:44:29.120Z,97147.00
2019-05-22T06:46:48.237Z,97145.64
2019-05-22T06:48:59.718Z,97144.93
2019-05-22T06:51:18.967Z,97144.45
2019-05-22T06:53:38.434Z,97145.59
2019-05-22T06:55:46.464Z,97145.05
2019-05-22T06:57:55.602Z,97150.39
2019-05-22T07:00:14.005Z,97147.48
2019-05-22T07:02:19.637Z,97154.62
2019-05-22T07:04:28.266Z,97151.70
2019-05-22T07:06:36.379Z,97157.45
2019-05-22T07:08:44.532Z,97161.48
2019-05-22T07:10:52.607Z,97162.84
2019-05-22T07:13:00.899Z,97170.52
2019-05-22T07:15:20.775Z,97160.89
2019-05-22T07:17:30.310Z,97165.83
2019-05-22T07:19:39.398Z,97168.14
2019-05-22T07:21:51.942Z,97163.50
2019-05-22T07:24:01.213Z,97167.71
2019-05-22T07:26:10.562Z,97165.70
2019-05-22T07:28:20.396Z,97166.13
2019-05-22T07:30:28.995Z,97168.14
2019-05-22T07:32:38.160Z,97177.56
2019-05-22T07:34:47.301Z,97176.80
2019-05-22T07:36:56.340Z,97179.23
2019-05-22T07:39:06.812Z,97184.05
2019-05-22T07:41:15.232Z,97181.51
2019-05-22T07:43:24.089Z,97184.50
2019-05-22T07:45:32.531Z,97186.77
2019-05-22T07:47:42.726Z,97178.34
2019-05-22T07:49:50.762Z,97186.88
2019-05-22T07:52:01.765Z,97187.38
2019-05-22T07:54:08.683Z,97198.50
2019-05-22T07:56:17.691Z,97186.31
2019-05-22T07:58:28.932Z,97188.23
2019-05-22T08:00:37.970Z,97195.14
2019-05-22T08:02:49.203Z,97196.19
2019-05-22T08:04:57.120Z,97202.32
2019-05-22T08:07:08.439Z,97207.16
2019-05-22T08:09:18.481Z,97202.52
2019-05-22T08:11:27.510Z,97203.91
2019-05-22T08:13:36.166Z,97204.73
2019-05-22T08:15:47.644Z,97208.70
2019-05-22T08:17:55.183Z,97212.89
2019-05-22T08:20:08.775Z,97212.69
2019-05-22T08:22:18.643Z,97212.31
2019-05-22T08:24:27.118Z,97212.27
2019-05-22T08:26:53.257Z,97213.70
2019-05-22T08:28:46.332Z,97220.13
2019-05-22T08:30:55.855Z,97217.38
2019-05-22T08:33:09.842Z,97224.38
2019-05-22T08:35:18.368Z,97221.87
2019-05-22T08:37:33.548Z,97227.05
2019-05-22T08:39:41.769Z,97221.03
2019-05-22T08:41:51.214Z,97223.76
2019-05-22T08:44:15.522Z,97233.09
2019-05-22T08:46:09.623Z,97235.34
2019-05-22T08:48:21.806Z,97234.80
2019-05-22T08:50:31.318Z,97240.42
2019-05-22T08:52:40.948Z,97232.72
2019-05-22T08:54:48.916Z,97236.59
2019-05-22T08:56:58.349Z,97242.87
2019-05-22T08:59:18.947Z,97245.41
2019-05-22T09:01:30.669Z,97241.01
2019-05-22T09:03:39.442Z,97245.95
2019-05-22T09:05:48.392Z,97249.72
2019-05-22T09:07:56.521Z,97243.80
2019-05-22T09:10:06.560Z,97253.09
2019-05-22T09:12:14.521Z,97247.94
2019-05-22T09:14:22.877Z,97251.11
2019-05-22T09:16:32.705Z,97253.08
2019-05-22T09:18:41.092Z,97252.62
2019-05-22T09:20:50.083Z,97252.98
2019-05-22T09:22:59.894Z,97250.55
2019-05-22T09:25:11.866Z,97255.42
2019-05-22T09:27:21.236Z,97252.66
2019-05-22T09:29:29.186Z,97261.06
2019-05-22T09:31:37.422Z,97257.02
2019-05-22T09:33:45.471Z,97263.18
2019-05-22T09:35:53.558Z,97269.48
2019-05-22T09:38:01.606Z,97275.96
2019-05-22T09:40:10.043Z,97272.29
2019-05-22T09:42:19.836Z,97284.06
2019-05-22T09:44:29.031Z,97280.75
2019-05-22T09:46:37.251Z,97285.89
2019-05-22T09:48:45.340Z,97284.97
2019-05-22T09:50:53.603Z,97291.40
2019-05-22T09:53:01.494Z,97283.22
2019-05-22T09:55:11.221Z,97289.66
2019-05-22T09:57:19.756Z,97289.70
2019-05-22T09:59:28.929Z,97295.77
2019-05-22T10:01:37.303Z,97290.25
2019-05-22T10:03:46.360Z,97293.41
2019-05-22T10:05:54.440Z,97295.45
2019-05-22T10:08:03.971Z,97296.53
2019-05-22T10:10:13.160Z,97295.93
2019-05-22T10:12:21.414Z,97302.23
2019-05-22T10:14:29.736Z,97304.83
2019-05-22T10:16:38.837Z,97295.05
2019-05-22T10:18:47.381Z,97305.66
2019-05-22T10:20:56.086Z,97301.49
2019-05-22T10:23:15.566Z,97304.23
2019-05-22T10:25:21.164Z,97307.81
2019-05-22T10:27:29.528Z,97313.05
2019-05-22T10:29:37.845Z,97314.34
2019-05-22T10:31:48.482Z,97313.72
2019-05-22T10:33:56.465Z,97317.98
2019-05-22T10:36:05.149Z,97319.82
2019-05-22T10:38:14.082Z,97319.22
2019-05-22T10:40:22.985Z,97319.66
2019-05-22T10:42:31.545Z,97321.55
2019-05-22T10:44:39.586Z,97317.87
2019-05-22T10:46:48.027Z,97331.58
2019-05-22T10:48:56.345Z,97325.36
2019-05-22T10:51:04.861Z,97328.54
2019-05-22T10:53:13.401Z,97332.59
2019-05-22T10:55:22.785Z,97331.73
2019-05-22T10:57:31.885Z,97326.75
2019-05-22T10:59:40.854Z,97333.81
2019-05-22T11:01:48.999Z,97338.36
2019-05-22T11:03:57.955Z,97335.23
2019-05-22T11:06:07.898Z,97337.42
2019-05-22T11:08:16.671Z,97347.05
2019-05-22T11:10:26.465Z,97345.55
2019-05-22T11:12:35.195Z,97340.68
2019-05-22T11:14:43.981Z,97344.19
2019-05-22T11:16:52.460Z,97341.71
2019-05-22T11:19:00.773Z,97342.72
2019-05-22T11:21:08.731Z,97345.48
2019-05-22T11:23:16.905Z,97345.55
2019-05-22T11:25:25.458Z,97343.26
2019-05-22T11:27:33.695Z,97340.33
2019-05-22T11:29:42.844Z,97349.34
2019-05-22T11:31:51.722Z,97342.31
2019-05-22T11:34:00.358Z,97350.22
2019-05-22T11:36:09.766Z,97348.34
2019-05-22T11:38:18.417Z,97344.10
2019-05-22T11:40:27.106Z,97345.30
2019-05-22T11:42:36.278Z,97347.13
2019-05-22T11:44:45.321Z,97349.00
2019-05-22T11:46:53.447Z,97352.98
2019-05-22T11:49:03.664Z,97351.98
2019-05-22T11:51:12.259Z,97357.62
2019-05-22T11:53:20.414Z,97344.48
2019-05-22T11:55:43.919Z,97350.23
2019-05-22T11:57:40.410Z,97352.14
2019-05-22T11:59:49.387Z,97358.13
2019-05-22T12:01:57.971Z,97359.41
2019-05-22T12:04:09.253Z,97359.23
2019-05-22T12:06:17.395Z,97366.75
2019-05-22T12:08:26.912Z,97361.08
2019-05-22T12:10:35.063Z,97365.47
2019-05-22T12:12:44.673Z,97361.34
2019-05-22T12:14:52.609Z,97363.86
2019-05-22T12:17:01.259Z,97361.22
2019-05-22T12:19:10.514Z,97358.09
2019-05-22T12:21:18.727Z,97362.25
2019-05-22T12:23:27.292Z,97371.98
2019-05-22T12:25:35.703Z,97362.62
2019-05-22T12:27:43.998Z,97361.08
2019-05-22T12:29:52.540Z,97360.25
2019-05-22T12:32:01.497Z,97358.96
2019-05-22T12:34:09.688Z,97361.92
2019-05-22T12:36:18.267Z,97368.53
2019-05-22T12:38:27.288Z,97365.99
2019-05-22T12:40:36.491Z,97373.28
2019-05-22T12:42:45.726Z,97374.27
2019-05-22T12:44:54.206Z,97374.56
2019-05-22T12:47:03.717Z,97369.25
2019-05-22T12:49:12.336Z,97380.20
2019-05-22T12:51:21.666Z,97379.42
2019-05-22T12:53:31.337Z,97384.23
2019-05-22T12:55:41.748Z,97375.95
2019-05-22T12:57:50.883Z,97375.79
2019-05-22T13:00:02.572Z,97379.55
2019-05-22T13:02:10.984Z,97376.42
2019-05-22T13:04:21.525Z,97383.30
2019-05-22T13:06:30.007Z,97379.87
2019-05-22T13:08:39.153Z,97374.38
2019-05-22T13:10:47.698Z,97376.31
2019-05-22T13:12:56.984Z,97378.78
2019-05-22T13:15:10.412Z,97381.02
2019-05-22T13:17:19.701Z,97378.63
2019-05-22T13:19:28.710Z,97383.45
2019-05-22T13:21:39.595Z,97380.07
2019-05-22T13:23:49.683Z,97383.30
2019-05-22T13:25:58.380Z,97383.95
2019-05-22T13:28:07.796Z,97388.23
2019-05-22T13:30:18.369Z,97386.41
2019-05-22T13:32:27.765Z,97387.15
2019-05-22T13:34:35.768Z,97393.66
2019-05-22T13:36:44.085Z,97391.31
2019-05-22T13:38:53.042Z,97392.89
2019-05-22T13:41:01.270Z,97391.39
2019-05-22T13:43:09.421Z,97391.59
2019-05-22T13:45:28.717Z,97395.39
2019-05-22T13:47:28.416Z,97394.86
2019-05-22T13:49:38.892Z,97393.58
2019-05-22T13:51:47.257Z,97393.89
2019-05-22T13:53:55.595Z,97387.27
2019-05-22T13:56:04.660Z,97397.02
2019-05-22T13:58:13.347Z,97392.67
2019-05-22T14:00:23.485Z,97390.30
2019-05-22T14:02:31.983Z,97387.95
2019-05-22T14:04:40.755Z,97392.20
2019-05-22T14:06:49.507Z,97390.77
2019-05-22T14:08:57.934Z,97398.08
2019-05-22T14:11:09.006Z,97396.61
2019-05-22T14:13:17.789Z,97394.06
2019-05-22T14:15:26.919Z,97395.56
2019-05-22T14:17:35.146Z,97399.97
2019-05-22T14:19:43.303Z,97396.77
2019-05-22T14:21:52.213Z,97399.34
2019-05-22T14:24:00.846Z,97402.02
2019-05-22T14:26:09.770Z,97406.06
2019-05-22T14:28:19.380Z,97406.80
2019-05-22T14:30:28.103Z,97396.80
2019-05-22T14:32:36.960Z,97401.58
2019-05-22T14:34:46.001Z,97400.72
2019-05-22T14:36:54.529Z,97406.03
2019-05-22T14:39:05.018Z,97403.81
2019-05-22T14:41:13.971Z,97404.61
2019-05-22T14:43:22.197Z,97404.00
2019-05-22T14:45:30.630Z,97406.55
2019-05-22T14:47:39.122Z,97403.31
2019-05-22T14:49:47.170Z,97410.13
2019-05-22T14:51:56.206Z,97408.09
2019-05-22T14:54:08.177Z,97405.52
2019-05-22T14:56:17.778Z,97404.22
2019-05-22T14:58:26.571Z,97403.61
2019-05-22T15:00:36.533Z,97410.53
2019-05-22T15:02:44.641Z,97411.06
2019-05-22T15:05:00.825Z,97412.89
2019-05-22T15:07:04.347Z,97415.68
2019-05-22T15:09:12.891Z,97418.44
2019-05-22T15:11:21.531Z,97414.86
2019-05-22T15:13:29.690Z,97417.26
2019-05-22T15:15:40.403Z,97415.44
2019-05-22T15:17:47.689Z,97419.63
2019-05-22T15:19:55.747Z,97419.63
2019-05-22T15:22:05.461Z,97420.45
2019-05-22T15:24:15.880Z,97420.09
2019-05-22T15:26:23.980Z,97424.47
2019-05-22T15:28:32.210Z,97426.02
2019-05-22T15:30:40.877Z,97427.73
2019-05-22T15:32:49.136Z,97428.16
2019-05-22T15:34:58.211Z,97428.92
2019-05-22T15:37:07.566Z,97430.42
2019-05-22T15:39:20.206Z,97435.47
2019-05-22T15:41:28.924Z,97430.70
2019-05-22T15:43:38.072Z,97433.90
2019-05-22T15:45:46.230Z,97439.87
2019-05-22T15:47:57.996Z,97436.02
2019-05-22T15:50:09.631Z,97444.22
2019-05-22T15:52:18.907Z,97437.77
2019-05-22T15:54:29.541Z,97435.69
2019-05-22T15:56:39.280Z,97442.13
2019-05-22T15:58:52.373Z,97438.73
2019-05-22T16:01:02.230Z,97441.03
2019-05-22T16:03:15.210Z,97443.28
2019-05-22T16:05:24.939Z,97449.23
2019-05-22T16:07:34.018Z,97452.50
2019-05-22T16:09:47.646Z,97450.45
2019-05-22T16:11:56.549Z,97454.00
2019-05-22T16:14:05.291Z,97452.64
2019-05-22T16:16:16.773Z,97454.58
2019-05-22T16:18:31.359Z,97447.66
2019-05-22T16:20:40.233Z,97448.67
2019-05-22T16:22:48.635Z,97457.63
2019-05-22T16:24:56.816Z,97456.13
2019-05-22T16:27:06.771Z,97459.17
2019-05-22T16:29:15.681Z,97455.98
2019-05-22T16:31:24.388Z,97457.27
2019-05-22T16:33:32.939Z,97461.75
2019-05-22T16:35:41.834Z,97465.16
2019-05-22T16:37:50.026Z,97470.78
2019-05-22T16:39:58.581Z,97471.75
2019-05-22T16:42:08.177Z,97476.77
2019-05-22T16:44:16.817Z,97483.37
2019-05-22T16:46:26.303Z,97478.53
2019-05-22T16:48:34.817Z,97485.34
2019-05-22T16:50:43.350Z,97485.80
2019-05-22T16:52:52.847Z,97485.87
2019-05-22T16:55:01.930Z,97490.03
2019-05-22T16:57:12.044Z,97486.16
2019-05-22T16:59:21.326Z,97490.36
2019-05-22T17:01:30.951Z,97493.62
2019-05-22T17:03:40.179Z,97496.34
2019-05-22T17:05:48.491Z,97499.39
2019-05-22T17:07:57.737Z,97501.75
2019-05-22T17:10:10.128Z,97505.98
2019-05-22T17:12:19.516Z,97509.64
2019-05-22T17:14:29.037Z,97516.37
2019-05-22T17:16:39.745Z,97518.63
2019-05-22T17:18:48.923Z,97514.08
2019-05-22T17:20:59.160Z,97511.96
2019-05-22T17:23:07.182Z,97517.59
2019-05-22T17:25:18.679Z,97525.00
2019-05-22T17:27:27.001Z,97526.77
2019-05-22T17:29:36.500Z,97524.68
2019-05-22T17:31:45.363Z,97535.11
2019-05-22T17:33:54.462Z,97528.55
2019-05-22T17:36:05.550Z,97530.77
2019-05-22T17:38:12.591Z,97536.08
2019-05-22T17:40:22.290Z,97534.45
2019-05-22T17:42:31.579Z,97534.70
2019-05-22T17:44:43.275Z,97535.95
2019-05-22T17:46:51.232Z,97534.80
2019-05-22T17:49:00.664Z,97543.47
2019-05-22T17:51:09.201Z,97548.16
2019-05-22T17:53:18.863Z,97545.09
2019-05-22T17:55:28.873Z,97551.96
2019-05-22T17:57:39.146Z,97556.23
2019-05-22T17:59:47.423Z,97554.81
2019-05-22T18:01:55.871Z,97557.39
2019-05-22T18:04:04.899Z,97556.92
2019-05-22T18:06:13.995Z,97565.12
2019-05-22T18:08:23.426Z,97570.06
2019-05-22T18:10:40.483Z,97570.70
2019-05-22T18:12:49.322Z,97567.35
2019-05-22T18:14:57.556Z,97572.38
2019-05-22T18:17:06.783Z,97571.47
2019-05-22T18:19:15.122Z,97583.91
2019-05-22T18:21:23.018Z,97584.18
2019-05-22T18:23:31.366Z,97587.77
2019-05-22T18:25:39.629Z,97588.45
2019-05-22T18:27:48.941Z,97588.37
2019-05-22T18:29:57.064Z,97590.53
2019-05-22T18:32:06.800Z,97597.84
2019-05-22T18:34:15.393Z,97585.22
2019-05-22T18:36:23.706Z,97597.66
2019-05-22T18:38:32.132Z,97598.19
2019-05-22T18:40:41.074Z,97605.95
2019-05-22T18:42:49.617Z,97608.93
2019-05-22T18:44:57.818Z,97606.39
2019-05-22T18:47:06.032Z,97610.72
2019-05-22T18:49:14.783Z,97621.29
2019-05-22T18:51:23.760Z,97623.77
2019-05-22T18:53:32.184Z,97628.72
2019-05-22T18:55:40.271Z,97621.98
2019-05-22T18:57:48.912Z,97629.70
2019-05-22T19:00:02.823Z,97628.75
2019-05-22T19:02:09.442Z,97638.23
2019-05-22T19:04:17.728Z,97633.90
2019-05-22T19:06:30.539Z,97641.23
2019-05-22T19:08:35.867Z,97644.50
2019-05-22T19:10:44.279Z,97643.78
2019-05-22T19:12:53.263Z,97648.57
2019-05-22T19:15:01.938Z,97650.75
2019-05-22T19:17:10.762Z,97657.75
2019-05-22T19:19:18.872Z,97659.02
2019-05-22T19:21:27.033Z,97657.92
2019-05-22T19:23:35.259Z,97660.50
2019-05-22T19:25:43.333Z,97659.94
2019-05-22T19:27:51.465Z,97666.34
2019-05-22T19:29:59.987Z,97666.34
2019-05-22T19:32:08.127Z,97663.05
2019-05-22T19:34:16.187Z,97667.59
2019-05-22T19:36:24.141Z,97672.30
2019-05-22T19:38:32.377Z,97675.23
2019-05-22T19:40:40.511Z,97677.22
2019-05-22T19:42:48.870Z,97673.81
2019-05-22T19:44:57.180Z,97670.58
2019-05-22T19:47:07.091Z,97674.91
2019-05-22T19:49:16.417Z,97660.37
2019-05-22T19:51:27.529Z,97661.78
2019-05-22T19:53:36.741Z,97662.05
2019-05-22T19:55:45.678Z,97670.38
2019-05-22T19:57:56.270Z,97664.66
2019-05-22T20:00:05.071Z,97662.23
2019-05-22T20:02:15.138Z,97669.47
2019-05-22T20:04:23.670Z,97667.92
2019-05-22T20:06:32.505Z,97676.63
2019-05-22T20:08:40.678Z,97674.39
2019-05-22T20:10:48.896Z,97676.27
2019-05-22T20:12:57.826Z,97669.13
2019-05-22T20:15:09.900Z,97668.23
2019-05-22T20:17:18.342Z,97675.52
2019-05-22T20:19:27.127Z,97678.33
2019-05-22T20:21:35.598Z,97675.78
2019-05-22T20:23:44.500Z,97680.41
2019-05-22T20:25:52.597Z,97683.27
2019-05-22T20:28:03.735Z,97686.91
2019-05-22T20:30:14.485Z,97687.00
2019-05-22T20:32:23.020Z,97689.37
2019-05-22T20:34:31.105Z,97689.83
2019-05-22T20:36:40.760Z,97686.71
2019-05-22T20:38:50.050Z,97690.31
2019-05-22T20:40:59.158Z,97694.64
2019-05-22T20:43:08.953Z,97702.25
2019-05-22T20:45:19.275Z,97702.37
2019-05-22T20:47:28.353Z,97707.17
2019-05-22T20:49:36.422Z,97698.87
2019-05-22T20:51:44.468Z,97696.77
2019-05-22T20:53:54.838Z,97701.21
2019-05-22T20:56:04.471Z,97702.61
2019-05-22T20:58:14.384Z,97710.44
2019-05-22T21:00:23.525Z,97712.09
2019-05-22T21:02:34.046Z,97718.00
2019-05-22T21:04:43.949Z,97711.56
2019-05-22T21:07:00.286Z,97711.54
2019-05-22T21:09:09.186Z,97718.31
2019-05-22T21:11:21.435Z,97718.76
2019-05-22T21:13:31.407Z,97719.14
2019-05-22T21:15:39.840Z,97720.13
2019-05-22T21:17:49.147Z,97720.70
2019-05-22T21:19:58.489Z,97723.73
2019-05-22T21:22:08.354Z,97721.17
2019-05-22T21:24:17.836Z,97721.91
2019-05-22T21:26:26.741Z,97722.37
2019-05-22T21:28:34.777Z,97731.52
2019-05-22T21:30:44.413Z,97728.93
2019-05-22T21:32:52.565Z,97725.77
2019-05-22T21:35:00.832Z,97733.00
2019-05-22T21:37:10.062Z,97736.47
2019-05-22T21:39:19.282Z,97739.34
2019-05-22T21:41:28.131Z,97738.37
2019-05-22T21:43:36.273Z,97740.26
2019-05-22T21:45:45.208Z,97744.56
2019-05-22T21:47:53.428Z,97748.12
2019-05-22T21:50:02.249Z,97742.63
2019-05-22T21:52:11.683Z,97744.59
2019-05-22T21:54:19.709Z,97745.02
2019-05-22T21:56:27.876Z,97746.91
2019-05-22T21:58:36.358Z,97750.30
2019-05-22T22:00:50.689Z,97760.76
2019-05-22T22:03:00.195Z,97761.27
2019-05-22T22:05:08.930Z,97750.98
2019-05-22T22:07:18.229Z,97758.59
2019-05-22T22:09:27.741Z,97764.45
2019-05-22T22:11:36.584Z,97759.54
2019-05-22T22:13:45.451Z,97758.51
2019-05-22T22:15:53.889Z,97765.27
2019-05-22T22:18:02.306Z,97766.35
2019-05-22T22:20:12.105Z,97772.66
2019-05-22T22:22:24.691Z,97766.69
2019-05-22T22:24:33.548Z,97769.26
2019-05-22T22:26:41.927Z,97767.97
2019-05-22T22:28:51.002Z,97769.00
2019-05-22T22:31:04.482Z,97770.63
2019-05-22T22:33:14.775Z,97774.71
2019-05-22T22:35:23.569Z,97769.92
2019-05-22T22:37:32.303Z,97770.72
2019-05-22T22:39:43.968Z,97766.53
2019-05-22T22:41:53.412Z,97772.49
2019-05-22T22:44:03.583Z,97773.50
2019-05-22T22:46:40.962Z,97773.98
2019-05-22T22:48:51.836Z,97771.88
2019-05-22T22:51:01.346Z,97773.05
2019-05-22T22:53:10.527Z,97773.87
2019-05-22T22:55:20.229Z,97777.16
2019-05-22T22:57:28.415Z,97777.26
2019-05-22T22:59:36.873Z,97782.20
2019-05-22T23:01:50.005Z,97777.98
2019-05-22T23:04:01.143Z,97784.17
2019-05-22T23:06:11.944Z,97779.25
2019-05-22T23:08:27.694Z,97773.57
2019-05-22T23:10:36.711Z,97769.17
2019-05-22T23:12:44.723Z,97776.89
2019-05-22T23:14:57.397Z,97778.34
2019-05-22T23:17:06.048Z,97776.56
2019-05-22T23:19:18.830Z,97775.52
2019-05-22T23:21:26.931Z,97782.20
2019-05-22T23:23:33.273Z,97783.82
2019-05-22T23:25:43.305Z,97778.45
2019-05-22T23:27:51.267Z,97776.25
2019-05-22T23:29:59.920Z,97774.27
2019-05-22T23:32:10.298Z,97778.01
2019-05-22T23:34:18.692Z,97777.06
2019-05-22T23:36:27.414Z,97777.64
2019-05-22T23:38:35.307Z,97782.06
2019-05-22T23:40:45.581Z,97785.24
2019-05-22T23:42:58.165Z,97782.98
2019-05-22T23:45:13.914Z,97786.09
2019-05-22T23:47:24.912Z,97781.62
2019-05-22T23:49:35.007Z,97795.19
2019-05-22T23:51:43.643Z,97794.73
2019-05-22T23:53:54.040Z,97794.09
2019-05-22T23:56:04.066Z,97798.02
2019-05-22T23:58:14.273Z,97794.42
